sensor_id;sensor_type;location;lat;lon;timestamp;temperature;humidity
39347;DHT22;26262;49.836;6.632;2023-08-31T00:00:29;12.70;99.90
39347;DHT22;26262;49.836;6.632;2023-08-31T00:02:55;12.70;99.90
39347;DHT22;26262;49.836;6.632;2023-08-31T00:05:20;12.60;99.90
39347;DHT22;26262;49.836;6.632;2023-08-31T00:07:46;12.70;99.90
39347;DHT22;26262;49.836;6.632;2023-08-31T00:10:11;12.60;99.90
39347;DHT22;26262;49.836;6.632;2023-08-31T00:12:37;12.70;99.90
39347;DHT22;26262;49.836;6.632;2023-08-31T00:15:03;12.50;99.90
39347;DHT22;26262;49.836;6.632;2023-08-31T00:17:30;12.40;99.90
39347;DHT22;26262;49.836;6.632;2023-08-31T00:19:55;12.40;99.90
39347;DHT22;26262;49.836;6.632;2023-08-31T00:22:21;12.30;99.90
39347;DHT22;26262;49.836;6.632;2023-08-31T00:24:46;12.40;99.90
39347;DHT22;26262;49.836;6.632;2023-08-31T00:27:12;12.50;99.90
39347;DHT22;26262;49.836;6.632;2023-08-31T00:29:39;12.60;99.90
39347;DHT22;26262;49.836;6.632;2023-08-31T00:32:04;12.70;99.90
39347;DHT22;26262;49.836;6.632;2023-08-31T00:34:30;12.50;99.90
39347;DHT22;26262;49.836;6.632;2023-08-31T00:36:56;12.60;99.90
39347;DHT22;26262;49.836;6.632;2023-08-31T00:39:21;12.50;99.90
39347;DHT22;26262;49.836;6.632;2023-08-31T00:41:47;12.30;99.90
39347;DHT22;26262;49.836;6.632;2023-08-31T00:44:12;12.40;99.90
39347;DHT22;26262;49.836;6.632;2023-08-31T00:46:40;12.50;99.90
39347;DHT22;26262;49.836;6.632;2023-08-31T00:49:05;12.50;99.90
39347;DHT22;26262;49.836;6.632;2023-08-31T00:51:31;12.50;99.90
39347;DHT22;26262;49.836;6.632;2023-08-31T00:53:56;12.50;99.90
39347;DHT22;26262;49.836;6.632;2023-08-31T00:56:24;12.40;99.90
39347;DHT22;26262;49.836;6.632;2023-08-31T00:58:49;12.50;99.90
39347;DHT22;26262;49.836;6.632;2023-08-31T01:03:50;12.30;99.90
39347;DHT22;26262;49.836;6.632;2023-08-31T01:08:56;12.40;99.90
39347;DHT22;26262;49.836;6.632;2023-08-31T01:11:29;12.40;99.90
39347;DHT22;26262;49.836;6.632;2023-08-31T01:14:02;12.20;99.90
39347;DHT22;26262;49.836;6.632;2023-08-31T01:16:33;12.00;99.90
39347;DHT22;26262;49.836;6.632;2023-08-31T01:19:00;12.10;99.90
39347;DHT22;26262;49.836;6.632;2023-08-31T01:21:30;12.00;99.90
39347;DHT22;26262;49.836;6.632;2023-08-31T01:24:00;12.00;99.90
39347;DHT22;26262;49.836;6.632;2023-08-31T01:26:26;11.80;99.90
39347;DHT22;26262;49.836;6.632;2023-08-31T01:28:52;11.90;99.90
39347;DHT22;26262;49.836;6.632;2023-08-31T01:31:18;11.80;99.90
39347;DHT22;26262;49.836;6.632;2023-08-31T01:33:43;11.80;99.90
39347;DHT22;26262;49.836;6.632;2023-08-31T01:36:14;11.50;99.90
39347;DHT22;26262;49.836;6.632;2023-08-31T01:38:42;11.50;99.90
39347;DHT22;26262;49.836;6.632;2023-08-31T01:41:10;11.40;99.90
39347;DHT22;26262;49.836;6.632;2023-08-31T01:43:37;11.40;99.90
39347;DHT22;26262;49.836;6.632;2023-08-31T01:46:04;11.30;99.90
39347;DHT22;26262;49.836;6.632;2023-08-31T01:48:30;11.30;99.90
39347;DHT22;26262;49.836;6.632;2023-08-31T01:50:56;11.30;99.90
39347;DHT22;26262;49.836;6.632;2023-08-31T01:53:21;11.10;99.90
39347;DHT22;26262;49.836;6.632;2023-08-31T01:55:47;11.00;99.90
39347;DHT22;26262;49.836;6.632;2023-08-31T01:58:13;10.90;99.90
39347;DHT22;26262;49.836;6.632;2023-08-31T02:00:38;10.90;99.90
39347;DHT22;26262;49.836;6.632;2023-08-31T02:03:04;11.00;99.90
39347;DHT22;26262;49.836;6.632;2023-08-31T02:05:29;11.10;99.90
39347;DHT22;26262;49.836;6.632;2023-08-31T02:07:55;11.30;99.90
39347;DHT22;26262;49.836;6.632;2023-08-31T02:10:20;11.30;99.90
39347;DHT22;26262;49.836;6.632;2023-08-31T02:12:46;11.30;99.90
39347;DHT22;26262;49.836;6.632;2023-08-31T02:15:11;11.40;99.90
39347;DHT22;26262;49.836;6.632;2023-08-31T02:17:37;11.40;99.90
39347;DHT22;26262;49.836;6.632;2023-08-31T02:20:02;11.40;99.90
39347;DHT22;26262;49.836;6.632;2023-08-31T02:22:38;11.30;99.90
39347;DHT22;26262;49.836;6.632;2023-08-31T02:25:04;11.00;99.90
39347;DHT22;26262;49.836;6.632;2023-08-31T02:27:30;11.00;99.90
39347;DHT22;26262;49.836;6.632;2023-08-31T02:29:56;10.90;99.90
39347;DHT22;26262;49.836;6.632;2023-08-31T02:32:21;10.90;99.90
39347;DHT22;26262;49.836;6.632;2023-08-31T02:34:47;10.60;99.90
39347;DHT22;26262;49.836;6.632;2023-08-31T02:37:16;10.70;99.90
39347;DHT22;26262;49.836;6.632;2023-08-31T02:39:41;10.80;99.90
39347;DHT22;26262;49.836;6.632;2023-08-31T02:42:06;10.90;99.90
39347;DHT22;26262;49.836;6.632;2023-08-31T02:44:33;10.70;99.90
39347;DHT22;26262;49.836;6.632;2023-08-31T02:46:58;10.60;99.90
39347;DHT22;26262;49.836;6.632;2023-08-31T02:49:24;10.50;99.90
39347;DHT22;26262;49.836;6.632;2023-08-31T02:51:49;10.60;99.90
39347;DHT22;26262;49.836;6.632;2023-08-31T02:54:15;10.70;99.90
39347;DHT22;26262;49.836;6.632;2023-08-31T02:56:40;10.80;99.90
39347;DHT22;26262;49.836;6.632;2023-08-31T02:59:05;10.50;99.90
39347;DHT22;26262;49.836;6.632;2023-08-31T03:01:31;10.50;99.90
39347;DHT22;26262;49.836;6.632;2023-08-31T03:03:56;10.40;99.90
39347;DHT22;26262;49.836;6.632;2023-08-31T03:06:22;10.40;99.90
39347;DHT22;26262;49.836;6.632;2023-08-31T03:08:47;10.30;99.90
39347;DHT22;26262;49.836;6.632;2023-08-31T03:11:13;10.20;99.90
39347;DHT22;26262;49.836;6.632;2023-08-31T03:13:41;10.30;99.90
39347;DHT22;26262;49.836;6.632;2023-08-31T03:16:07;10.40;99.90
39347;DHT22;26262;49.836;6.632;2023-08-31T03:18:32;10.50;99.90
39347;DHT22;26262;49.836;6.632;2023-08-31T03:20:58;10.60;99.90
39347;DHT22;26262;49.836;6.632;2023-08-31T03:23:24;10.50;99.90
39347;DHT22;26262;49.836;6.632;2023-08-31T03:25:49;10.50;99.90
39347;DHT22;26262;49.836;6.632;2023-08-31T03:28:15;10.50;99.90
39347;DHT22;26262;49.836;6.632;2023-08-31T03:30:40;10.50;99.90
39347;DHT22;26262;49.836;6.632;2023-08-31T03:33:05;10.60;99.90
39347;DHT22;26262;49.836;6.632;2023-08-31T03:35:31;10.70;99.90
39347;DHT22;26262;49.836;6.632;2023-08-31T03:37:57;10.60;99.90
39347;DHT22;26262;49.836;6.632;2023-08-31T03:40:22;10.50;99.90
39347;DHT22;26262;49.836;6.632;2023-08-31T03:42:49;10.50;99.90
39347;DHT22;26262;49.836;6.632;2023-08-31T03:45:14;10.30;99.90
39347;DHT22;26262;49.836;6.632;2023-08-31T03:47:40;10.30;99.90
39347;DHT22;26262;49.836;6.632;2023-08-31T03:50:05;10.40;99.90
39347;DHT22;26262;49.836;6.632;2023-08-31T03:52:31;10.40;99.90
39347;DHT22;26262;49.836;6.632;2023-08-31T03:54:56;10.60;99.90
39347;DHT22;26262;49.836;6.632;2023-08-31T03:57:22;10.60;99.90
39347;DHT22;26262;49.836;6.632;2023-08-31T03:59:47;10.50;99.90
39347;DHT22;26262;49.836;6.632;2023-08-31T04:02:13;10.40;99.90
39347;DHT22;26262;49.836;6.632;2023-08-31T04:04:38;10.20;99.90
39347;DHT22;26262;49.836;6.632;2023-08-31T04:07:04;10.20;99.90
39347;DHT22;26262;49.836;6.632;2023-08-31T04:09:30;10.30;99.90
39347;DHT22;26262;49.836;6.632;2023-08-31T04:11:55;10.40;99.90
39347;DHT22;26262;49.836;6.632;2023-08-31T04:14:21;10.50;99.90
39347;DHT22;26262;49.836;6.632;2023-08-31T04:16:46;10.30;99.90
39347;DHT22;26262;49.836;6.632;2023-08-31T04:19:14;10.20;99.90
39347;DHT22;26262;49.836;6.632;2023-08-31T04:21:40;10.30;99.90
39347;DHT22;26262;49.836;6.632;2023-08-31T04:24:05;10.40;99.90
39347;DHT22;26262;49.836;6.632;2023-08-31T04:26:31;10.60;99.90
39347;DHT22;26262;49.836;6.632;2023-08-31T04:28:56;10.50;99.90
39347;DHT22;26262;49.836;6.632;2023-08-31T04:31:22;10.50;99.90
39347;DHT22;26262;49.836;6.632;2023-08-31T04:33:47;10.50;99.90
39347;DHT22;26262;49.836;6.632;2023-08-31T04:36:13;10.40;99.90
39347;DHT22;26262;49.836;6.632;2023-08-31T04:38:39;10.40;99.90
39347;DHT22;26262;49.836;6.632;2023-08-31T04:41:04;10.40;99.90
39347;DHT22;26262;49.836;6.632;2023-08-31T04:43:30;10.50;99.90
39347;DHT22;26262;49.836;6.632;2023-08-31T04:45:55;10.60;99.90
39347;DHT22;26262;49.836;6.632;2023-08-31T04:48:21;10.60;99.90
39347;DHT22;26262;49.836;6.632;2023-08-31T04:50:46;10.70;99.90
39347;DHT22;26262;49.836;6.632;2023-08-31T04:53:12;10.80;99.90
39347;DHT22;26262;49.836;6.632;2023-08-31T04:55:37;10.70;99.90
39347;DHT22;26262;49.836;6.632;2023-08-31T04:58:03;10.80;99.90
39347;DHT22;26262;49.836;6.632;2023-08-31T05:00:28;10.90;99.90
39347;DHT22;26262;49.836;6.632;2023-08-31T05:02:55;10.90;99.90
39347;DHT22;26262;49.836;6.632;2023-08-31T05:05:20;11.00;99.90
39347;DHT22;26262;49.836;6.632;2023-08-31T05:07:46;11.00;99.90
39347;DHT22;26262;49.836;6.632;2023-08-31T05:10:11;11.10;99.90
39347;DHT22;26262;49.836;6.632;2023-08-31T05:12:37;11.10;99.90
39347;DHT22;26262;49.836;6.632;2023-08-31T05:15:02;11.00;99.90
39347;DHT22;26262;49.836;6.632;2023-08-31T05:17:28;11.10;99.90
39347;DHT22;26262;49.836;6.632;2023-08-31T05:19:53;11.00;99.90
39347;DHT22;26262;49.836;6.632;2023-08-31T05:22:19;11.00;99.90
39347;DHT22;26262;49.836;6.632;2023-08-31T05:24:44;10.90;99.90
39347;DHT22;26262;49.836;6.632;2023-08-31T05:27:10;10.60;99.90
39347;DHT22;26262;49.836;6.632;2023-08-31T05:29:35;10.60;99.90
39347;DHT22;26262;49.836;6.632;2023-08-31T05:32:01;10.40;99.90
39347;DHT22;26262;49.836;6.632;2023-08-31T05:34:26;10.40;99.90
39347;DHT22;26262;49.836;6.632;2023-08-31T05:36:52;10.50;99.90
39347;DHT22;26262;49.836;6.632;2023-08-31T05:39:17;10.60;99.90
39347;DHT22;26262;49.836;6.632;2023-08-31T05:41:43;10.70;99.90
39347;DHT22;26262;49.836;6.632;2023-08-31T05:44:09;10.70;99.90
39347;DHT22;26262;49.836;6.632;2023-08-31T05:46:35;10.80;99.90
39347;DHT22;26262;49.836;6.632;2023-08-31T05:49:00;10.60;99.90
39347;DHT22;26262;49.836;6.632;2023-08-31T05:51:26;10.50;99.90
39347;DHT22;26262;49.836;6.632;2023-08-31T05:53:51;10.50;99.90
39347;DHT22;26262;49.836;6.632;2023-08-31T05:56:18;10.70;99.90
39347;DHT22;26262;49.836;6.632;2023-08-31T05:58:44;10.60;99.90
39347;DHT22;26262;49.836;6.632;2023-08-31T06:01:10;10.60;99.90
39347;DHT22;26262;49.836;6.632;2023-08-31T06:03:35;10.70;99.90
39347;DHT22;26262;49.836;6.632;2023-08-31T06:06:01;10.70;99.90
39347;DHT22;26262;49.836;6.632;2023-08-31T06:08:27;10.60;99.90
39347;DHT22;26262;49.836;6.632;2023-08-31T06:10:52;10.80;99.90
39347;DHT22;26262;49.836;6.632;2023-08-31T06:13:18;10.90;99.90
39347;DHT22;26262;49.836;6.632;2023-08-31T06:15:43;11.00;99.90
39347;DHT22;26262;49.836;6.632;2023-08-31T06:18:12;11.10;99.90
39347;DHT22;26262;49.836;6.632;2023-08-31T06:20:38;11.10;99.90
39347;DHT22;26262;49.836;6.632;2023-08-31T06:23:04;11.20;99.90
39347;DHT22;26262;49.836;6.632;2023-08-31T06:25:29;11.20;99.90
39347;DHT22;26262;49.836;6.632;2023-08-31T06:27:55;11.30;99.90
39347;DHT22;26262;49.836;6.632;2023-08-31T06:30:20;11.40;99.90
39347;DHT22;26262;49.836;6.632;2023-08-31T06:32:46;11.40;99.90
39347;DHT22;26262;49.836;6.632;2023-08-31T06:35:12;11.50;99.90
39347;DHT22;26262;49.836;6.632;2023-08-31T06:37:38;11.40;99.90
39347;DHT22;26262;49.836;6.632;2023-08-31T06:40:08;11.20;99.90
39347;DHT22;26262;49.836;6.632;2023-08-31T06:42:34;11.20;99.90
39347;DHT22;26262;49.836;6.632;2023-08-31T06:45:00;11.10;99.90
39347;DHT22;26262;49.836;6.632;2023-08-31T06:47:25;11.20;99.90
39347;DHT22;26262;49.836;6.632;2023-08-31T06:49:50;11.30;99.90
39347;DHT22;26262;49.836;6.632;2023-08-31T06:52:16;11.50;99.90
39347;DHT22;26262;49.836;6.632;2023-08-31T06:54:42;11.60;99.90
39347;DHT22;26262;49.836;6.632;2023-08-31T06:57:07;11.60;99.90
39347;DHT22;26262;49.836;6.632;2023-08-31T06:59:33;11.70;99.90
39347;DHT22;26262;49.836;6.632;2023-08-31T07:01:58;11.70;99.90
39347;DHT22;26262;49.836;6.632;2023-08-31T07:04:24;11.80;99.90
39347;DHT22;26262;49.836;6.632;2023-08-31T07:06:49;11.80;99.90
39347;DHT22;26262;49.836;6.632;2023-08-31T07:09:15;12.00;99.90
39347;DHT22;26262;49.836;6.632;2023-08-31T07:11:40;11.90;99.90
39347;DHT22;26262;49.836;6.632;2023-08-31T07:14:06;11.90;99.90
39347;DHT22;26262;49.836;6.632;2023-08-31T07:16:31;12.00;99.90
39347;DHT22;26262;49.836;6.632;2023-08-31T07:18:57;12.20;99.90
39347;DHT22;26262;49.836;6.632;2023-08-31T07:21:22;12.40;99.90
39347;DHT22;26262;49.836;6.632;2023-08-31T07:23:47;12.50;99.90
39347;DHT22;26262;49.836;6.632;2023-08-31T07:26:13;12.70;99.90
39347;DHT22;26262;49.836;6.632;2023-08-31T07:28:39;12.80;99.90
39347;DHT22;26262;49.836;6.632;2023-08-31T07:31:04;13.00;99.90
39347;DHT22;26262;49.836;6.632;2023-08-31T07:33:31;13.10;99.90
39347;DHT22;26262;49.836;6.632;2023-08-31T07:35:58;13.10;99.90
39347;DHT22;26262;49.836;6.632;2023-08-31T07:38:24;13.10;99.90
39347;DHT22;26262;49.836;6.632;2023-08-31T07:40:49;13.20;99.90
39347;DHT22;26262;49.836;6.632;2023-08-31T07:43:15;13.30;99.90
39347;DHT22;26262;49.836;6.632;2023-08-31T07:45:40;13.40;99.90
39347;DHT22;26262;49.836;6.632;2023-08-31T07:48:05;13.50;99.90
39347;DHT22;26262;49.836;6.632;2023-08-31T07:50:32;13.60;99.90
39347;DHT22;26262;49.836;6.632;2023-08-31T07:52:57;13.70;99.90
39347;DHT22;26262;49.836;6.632;2023-08-31T07:55:23;13.90;99.90
39347;DHT22;26262;49.836;6.632;2023-08-31T07:57:48;14.10;99.90
39347;DHT22;26262;49.836;6.632;2023-08-31T08:00:14;14.10;99.90
39347;DHT22;26262;49.836;6.632;2023-08-31T08:02:44;14.20;99.90
39347;DHT22;26262;49.836;6.632;2023-08-31T08:05:10;14.40;99.90
39347;DHT22;26262;49.836;6.632;2023-08-31T08:07:35;14.50;99.90
39347;DHT22;26262;49.836;6.632;2023-08-31T08:10:01;14.60;99.90
39347;DHT22;26262;49.836;6.632;2023-08-31T08:12:26;14.70;99.90
39347;DHT22;26262;49.836;6.632;2023-08-31T08:14:52;14.80;99.90
39347;DHT22;26262;49.836;6.632;2023-08-31T08:17:17;14.80;99.90
39347;DHT22;26262;49.836;6.632;2023-08-31T08:19:42;14.90;99.90
39347;DHT22;26262;49.836;6.632;2023-08-31T08:22:08;15.00;99.90
39347;DHT22;26262;49.836;6.632;2023-08-31T08:24:33;15.20;99.90
39347;DHT22;26262;49.836;6.632;2023-08-31T08:26:59;15.30;99.90
39347;DHT22;26262;49.836;6.632;2023-08-31T08:29:24;15.20;99.90
39347;DHT22;26262;49.836;6.632;2023-08-31T08:31:50;15.30;99.90
39347;DHT22;26262;49.836;6.632;2023-08-31T08:34:15;15.50;99.90
39347;DHT22;26262;49.836;6.632;2023-08-31T08:36:41;15.60;99.90
39347;DHT22;26262;49.836;6.632;2023-08-31T08:39:06;15.60;99.90
39347;DHT22;26262;49.836;6.632;2023-08-31T08:41:32;15.70;99.90
39347;DHT22;26262;49.836;6.632;2023-08-31T08:44:01;15.90;99.90
39347;DHT22;26262;49.836;6.632;2023-08-31T08:46:27;16.00;99.90
39347;DHT22;26262;49.836;6.632;2023-08-31T08:48:52;16.20;99.90
39347;DHT22;26262;49.836;6.632;2023-08-31T08:51:19;16.30;99.90
39347;DHT22;26262;49.836;6.632;2023-08-31T08:53:45;16.20;99.90
39347;DHT22;26262;49.836;6.632;2023-08-31T08:56:11;16.30;99.90
39347;DHT22;26262;49.836;6.632;2023-08-31T08:58:37;16.60;99.90
39347;DHT22;26262;49.836;6.632;2023-08-31T09:01:02;16.70;99.90
39347;DHT22;26262;49.836;6.632;2023-08-31T09:03:29;16.70;99.90
39347;DHT22;26262;49.836;6.632;2023-08-31T09:05:54;16.50;99.90
39347;DHT22;26262;49.836;6.632;2023-08-31T09:08:25;16.40;99.90
39347;DHT22;26262;49.836;6.632;2023-08-31T09:10:50;16.40;99.90
39347;DHT22;26262;49.836;6.632;2023-08-31T09:13:16;16.70;99.90
39347;DHT22;26262;49.836;6.632;2023-08-31T09:15:45;16.80;99.90
39347;DHT22;26262;49.836;6.632;2023-08-31T09:20:49;17.20;99.90
39347;DHT22;26262;49.836;6.632;2023-08-31T09:23:15;17.20;99.90
39347;DHT22;26262;49.836;6.632;2023-08-31T09:25:41;17.40;99.90
39347;DHT22;26262;49.836;6.632;2023-08-31T09:28:07;17.70;99.90
39347;DHT22;26262;49.836;6.632;2023-08-31T09:30:38;17.80;99.90
39347;DHT22;26262;49.836;6.632;2023-08-31T09:33:06;18.20;99.90
39347;DHT22;26262;49.836;6.632;2023-08-31T09:35:32;18.20;99.90
39347;DHT22;26262;49.836;6.632;2023-08-31T09:37:57;18.20;99.90
39347;DHT22;26262;49.836;6.632;2023-08-31T09:40:23;18.20;99.90
39347;DHT22;26262;49.836;6.632;2023-08-31T09:42:51;18.20;99.90
39347;DHT22;26262;49.836;6.632;2023-08-31T09:45:17;18.20;99.90
39347;DHT22;26262;49.836;6.632;2023-08-31T09:47:43;18.40;99.90
39347;DHT22;26262;49.836;6.632;2023-08-31T09:50:08;18.60;99.90
39347;DHT22;26262;49.836;6.632;2023-08-31T09:52:34;18.50;99.90
39347;DHT22;26262;49.836;6.632;2023-08-31T09:55:00;18.60;99.90
39347;DHT22;26262;49.836;6.632;2023-08-31T09:57:26;19.00;99.90
39347;DHT22;26262;49.836;6.632;2023-08-31T09:59:52;19.10;99.90
39347;DHT22;26262;49.836;6.632;2023-08-31T10:02:17;18.80;99.90
39347;DHT22;26262;49.836;6.632;2023-08-31T10:04:43;19.10;99.90
39347;DHT22;26262;49.836;6.632;2023-08-31T10:07:09;19.40;99.90
39347;DHT22;26262;49.836;6.632;2023-08-31T10:09:36;19.70;99.90
39347;DHT22;26262;49.836;6.632;2023-08-31T10:12:04;19.90;99.90
39347;DHT22;26262;49.836;6.632;2023-08-31T10:14:29;19.40;99.90
39347;DHT22;26262;49.836;6.632;2023-08-31T10:16:55;19.20;99.90
39347;DHT22;26262;49.836;6.632;2023-08-31T10:19:21;19.00;99.90
39347;DHT22;26262;49.836;6.632;2023-08-31T10:21:47;19.10;99.90
39347;DHT22;26262;49.836;6.632;2023-08-31T10:24:12;18.80;99.90
39347;DHT22;26262;49.836;6.632;2023-08-31T10:26:38;18.90;99.90
39347;DHT22;26262;49.836;6.632;2023-08-31T10:29:03;19.00;99.90
39347;DHT22;26262;49.836;6.632;2023-08-31T10:31:30;19.00;99.90
39347;DHT22;26262;49.836;6.632;2023-08-31T10:34:00;19.00;99.90
39347;DHT22;26262;49.836;6.632;2023-08-31T10:39:06;18.70;99.90
39347;DHT22;26262;49.836;6.632;2023-08-31T10:41:35;19.10;99.90
39347;DHT22;26262;49.836;6.632;2023-08-31T10:44:01;19.40;99.90
39347;DHT22;26262;49.836;6.632;2023-08-31T10:46:28;19.50;99.90
39347;DHT22;26262;49.836;6.632;2023-08-31T10:48:54;19.90;99.90
39347;DHT22;26262;49.836;6.632;2023-08-31T10:51:30;20.30;99.90
39347;DHT22;26262;49.836;6.632;2023-08-31T10:54:05;19.80;99.90
39347;DHT22;26262;49.836;6.632;2023-08-31T10:56:31;20.30;99.90
39347;DHT22;26262;49.836;6.632;2023-08-31T10:59:00;20.40;99.90
39347;DHT22;26262;49.836;6.632;2023-08-31T11:04:10;19.50;99.90
39347;DHT22;26262;49.836;6.632;2023-08-31T11:06:36;18.90;99.90
39347;DHT22;26262;49.836;6.632;2023-08-31T11:09:01;18.70;99.90
39347;DHT22;26262;49.836;6.632;2023-08-31T11:11:27;18.40;99.90
39347;DHT22;26262;49.836;6.632;2023-08-31T11:13:56;18.10;99.90
39347;DHT22;26262;49.836;6.632;2023-08-31T11:16:21;17.90;99.90
39347;DHT22;26262;49.836;6.632;2023-08-31T11:18:47;18.00;99.90
39347;DHT22;26262;49.836;6.632;2023-08-31T11:21:13;18.30;99.90
39347;DHT22;26262;49.836;6.632;2023-08-31T11:23:38;18.10;99.90
39347;DHT22;26262;49.836;6.632;2023-08-31T11:26:03;18.30;99.90
39347;DHT22;26262;49.836;6.632;2023-08-31T11:28:32;18.20;99.90
39347;DHT22;26262;49.836;6.632;2023-08-31T11:30:58;18.30;99.90
39347;DHT22;26262;49.836;6.632;2023-08-31T11:33:23;18.50;99.90
39347;DHT22;26262;49.836;6.632;2023-08-31T11:35:49;19.20;99.90
39347;DHT22;26262;49.836;6.632;2023-08-31T11:38:15;19.80;99.90
39347;DHT22;26262;49.836;6.632;2023-08-31T11:40:41;19.90;99.90
39347;DHT22;26262;49.836;6.632;2023-08-31T11:43:07;19.50;99.90
39347;DHT22;26262;49.836;6.632;2023-08-31T11:45:32;19.40;99.90
39347;DHT22;26262;49.836;6.632;2023-08-31T11:47:58;19.20;99.90
39347;DHT22;26262;49.836;6.632;2023-08-31T11:50:24;18.90;99.90
39347;DHT22;26262;49.836;6.632;2023-08-31T11:52:49;18.60;99.90
39347;DHT22;26262;49.836;6.632;2023-08-31T11:55:16;18.90;99.90
39347;DHT22;26262;49.836;6.632;2023-08-31T11:57:52;19.10;99.90
39347;DHT22;26262;49.836;6.632;2023-08-31T12:00:19;19.30;99.90
39347;DHT22;26262;49.836;6.632;2023-08-31T12:02:46;20.20;99.90
39347;DHT22;26262;49.836;6.632;2023-08-31T12:05:19;20.40;99.90
39347;DHT22;26262;49.836;6.632;2023-08-31T12:07:44;20.70;99.90
39347;DHT22;26262;49.836;6.632;2023-08-31T12:10:10;21.50;99.90
39347;DHT22;26262;49.836;6.632;2023-08-31T12:12:35;21.70;99.90
39347;DHT22;26262;49.836;6.632;2023-08-31T12:15:02;21.80;99.90
39347;DHT22;26262;49.836;6.632;2023-08-31T12:17:29;21.80;99.90
39347;DHT22;26262;49.836;6.632;2023-08-31T12:20:02;21.60;99.90
39347;DHT22;26262;49.836;6.632;2023-08-31T12:22:29;21.20;99.90
39347;DHT22;26262;49.836;6.632;2023-08-31T12:24:54;20.70;99.90
39347;DHT22;26262;49.836;6.632;2023-08-31T12:27:20;21.30;99.90
39347;DHT22;26262;49.836;6.632;2023-08-31T12:29:46;21.80;99.90
39347;DHT22;26262;49.836;6.632;2023-08-31T12:32:11;22.00;99.90
39347;DHT22;26262;49.836;6.632;2023-08-31T12:34:37;21.70;99.90
39347;DHT22;26262;49.836;6.632;2023-08-31T12:37:02;20.50;99.90
39347;DHT22;26262;49.836;6.632;2023-08-31T12:39:29;20.10;99.90
39347;DHT22;26262;49.836;6.632;2023-08-31T12:41:55;19.40;99.90
39347;DHT22;26262;49.836;6.632;2023-08-31T12:44:21;18.90;99.90
39347;DHT22;26262;49.836;6.632;2023-08-31T12:46:47;19.00;99.90
39347;DHT22;26262;49.836;6.632;2023-08-31T12:49:12;19.70;99.90
39347;DHT22;26262;49.836;6.632;2023-08-31T12:51:38;19.90;99.90
39347;DHT22;26262;49.836;6.632;2023-08-31T12:54:03;20.20;99.90
39347;DHT22;26262;49.836;6.632;2023-08-31T12:56:29;20.00;99.90
39347;DHT22;26262;49.836;6.632;2023-08-31T12:58:54;19.80;99.90
39347;DHT22;26262;49.836;6.632;2023-08-31T13:01:20;19.80;99.90
39347;DHT22;26262;49.836;6.632;2023-08-31T13:03:46;20.00;99.90
39347;DHT22;26262;49.836;6.632;2023-08-31T13:06:13;20.00;99.90
39347;DHT22;26262;49.836;6.632;2023-08-31T13:08:38;20.20;99.90
39347;DHT22;26262;49.836;6.632;2023-08-31T13:11:04;20.60;99.90
39347;DHT22;26262;49.836;6.632;2023-08-31T13:13:30;20.70;99.90
39347;DHT22;26262;49.836;6.632;2023-08-31T13:15:56;20.20;99.90
39347;DHT22;26262;49.836;6.632;2023-08-31T13:18:22;20.50;99.90
39347;DHT22;26262;49.836;6.632;2023-08-31T13:20:48;20.50;99.90
39347;DHT22;26262;49.836;6.632;2023-08-31T13:23:14;20.30;99.90
39347;DHT22;26262;49.836;6.632;2023-08-31T13:25:39;20.50;99.90
39347;DHT22;26262;49.836;6.632;2023-08-31T13:28:04;20.60;99.90
39347;DHT22;26262;49.836;6.632;2023-08-31T13:30:30;21.20;99.90
39347;DHT22;26262;49.836;6.632;2023-08-31T13:32:55;21.90;99.90
39347;DHT22;26262;49.836;6.632;2023-08-31T13:35:21;22.10;99.90
39347;DHT22;26262;49.836;6.632;2023-08-31T13:37:46;21.00;99.90
39347;DHT22;26262;49.836;6.632;2023-08-31T13:40:12;21.10;99.90
39347;DHT22;26262;49.836;6.632;2023-08-31T13:42:42;21.00;99.90
39347;DHT22;26262;49.836;6.632;2023-08-31T13:45:13;20.70;99.90
39347;DHT22;26262;49.836;6.632;2023-08-31T13:47:39;20.40;99.90
39347;DHT22;26262;49.836;6.632;2023-08-31T13:50:04;20.50;99.90
39347;DHT22;26262;49.836;6.632;2023-08-31T13:52:30;20.80;99.90
39347;DHT22;26262;49.836;6.632;2023-08-31T13:54:55;21.10;99.90
39347;DHT22;26262;49.836;6.632;2023-08-31T13:57:21;21.60;99.90
39347;DHT22;26262;49.836;6.632;2023-08-31T13:59:46;22.00;99.90
39347;DHT22;26262;49.836;6.632;2023-08-31T14:02:11;22.40;99.90
39347;DHT22;26262;49.836;6.632;2023-08-31T14:04:37;22.50;99.40
39347;DHT22;26262;49.836;6.632;2023-08-31T14:07:02;22.50;99.90
39347;DHT22;26262;49.836;6.632;2023-08-31T14:09:28;22.40;99.80
39347;DHT22;26262;49.836;6.632;2023-08-31T14:11:53;22.00;99.90
39347;DHT22;26262;49.836;6.632;2023-08-31T14:14:22;22.10;99.90
39347;DHT22;26262;49.836;6.632;2023-08-31T14:16:49;22.20;99.80
39347;DHT22;26262;49.836;6.632;2023-08-31T14:19:14;22.10;99.90
39347;DHT22;26262;49.836;6.632;2023-08-31T14:21:40;21.70;99.90
39347;DHT22;26262;49.836;6.632;2023-08-31T14:24:05;21.90;99.40
39347;DHT22;26262;49.836;6.632;2023-08-31T14:26:31;21.80;99.90
39347;DHT22;26262;49.836;6.632;2023-08-31T14:28:56;21.70;98.90
39347;DHT22;26262;49.836;6.632;2023-08-31T14:31:22;21.80;99.90
39347;DHT22;26262;49.836;6.632;2023-08-31T14:33:47;21.30;99.90
39347;DHT22;26262;49.836;6.632;2023-08-31T14:36:14;21.40;99.90
39347;DHT22;26262;49.836;6.632;2023-08-31T14:38:39;21.40;99.90
39347;DHT22;26262;49.836;6.632;2023-08-31T14:41:05;21.10;99.90
39347;DHT22;26262;49.836;6.632;2023-08-31T14:43:32;21.10;99.90
39347;DHT22;26262;49.836;6.632;2023-08-31T14:45:57;20.20;99.90
39347;DHT22;26262;49.836;6.632;2023-08-31T14:48:23;20.10;99.90
39347;DHT22;26262;49.836;6.632;2023-08-31T14:50:49;20.20;99.90
39347;DHT22;26262;49.836;6.632;2023-08-31T14:53:14;20.20;99.90
39347;DHT22;26262;49.836;6.632;2023-08-31T14:55:40;20.10;99.90
39347;DHT22;26262;49.836;6.632;2023-08-31T14:58:05;20.00;99.90
39347;DHT22;26262;49.836;6.632;2023-08-31T15:00:31;19.80;99.90
39347;DHT22;26262;49.836;6.632;2023-08-31T15:02:56;19.80;99.90
39347;DHT22;26262;49.836;6.632;2023-08-31T15:05:22;19.90;99.90
39347;DHT22;26262;49.836;6.632;2023-08-31T15:07:50;19.90;99.90
39347;DHT22;26262;49.836;6.632;2023-08-31T15:10:16;19.70;99.90
39347;DHT22;26262;49.836;6.632;2023-08-31T15:12:42;19.70;99.90
39347;DHT22;26262;49.836;6.632;2023-08-31T15:15:08;19.60;99.90
39347;DHT22;26262;49.836;6.632;2023-08-31T15:17:34;19.20;99.90
39347;DHT22;26262;49.836;6.632;2023-08-31T15:19:59;19.20;99.90
39347;DHT22;26262;49.836;6.632;2023-08-31T15:22:25;18.90;99.90
39347;DHT22;26262;49.836;6.632;2023-08-31T15:24:51;18.80;99.90
39347;DHT22;26262;49.836;6.632;2023-08-31T15:27:16;18.50;99.90
39347;DHT22;26262;49.836;6.632;2023-08-31T15:29:42;18.40;99.90
39347;DHT22;26262;49.836;6.632;2023-08-31T15:32:07;17.90;99.90
39347;DHT22;26262;49.836;6.632;2023-08-31T15:34:33;17.90;99.90